createdAt,value
2018-07-10T00:00:09.072Z,17.74
2018-07-10T00:01:09.644Z,17.72
2018-07-10T00:02:10.220Z,17.77
2018-07-10T00:03:10.783Z,17.77
2018-07-10T00:04:11.328Z,17.59
2018-07-10T00:05:11.881Z,17.67
2018-07-10T00:06:12.431Z,17.63
2018-07-10T00:07:12.985Z,17.55
2018-07-10T00:08:13.559Z,17.64
2018-07-10T00:09:14.088Z,17.63
2018-07-10T00:10:14.636Z,17.63
2018-07-10T00:11:15.188Z,17.52
2018-07-10T00:12:15.762Z,17.60
2018-07-10T00:13:16.281Z,17.60
2018-07-10T00:14:16.836Z,17.59
2018-07-10T00:15:17.391Z,17.54
2018-07-10T00:16:17.945Z,17.49
2018-07-10T00:17:18.502Z,17.48
2018-07-10T00:18:19.068Z,17.51
2018-07-10T00:19:19.622Z,17.45
2018-07-10T00:20:20.177Z,17.39
2018-07-10T00:21:20.728Z,17.48
2018-07-10T00:22:21.281Z,17.37
2018-07-10T00:23:21.838Z,17.49
2018-07-10T00:24:22.387Z,17.41
2018-07-10T00:25:22.969Z,17.44
2018-07-10T00:26:23.547Z,17.41
2018-07-10T00:27:24.096Z,17.42
2018-07-10T00:28:24.645Z,17.46
2018-07-10T00:29:25.191Z,17.41
2018-07-10T00:30:25.795Z,17.27
2018-07-10T00:31:26.327Z,17.19
2018-07-10T00:32:26.872Z,17.15
2018-07-10T00:33:27.427Z,17.18
2018-07-10T00:34:27.982Z,17.19
2018-07-10T00:35:28.555Z,17.09
2018-07-10T00:36:29.110Z,17.15
2018-07-10T00:37:29.667Z,17.00
2018-07-10T00:38:30.222Z,17.01
2018-07-10T00:39:30.772Z,17.00
2018-07-10T00:40:31.329Z,17.01
2018-07-10T00:41:31.882Z,17.05
2018-07-10T00:42:32.433Z,17.14
2018-07-10T00:43:32.985Z,17.14
2018-07-10T00:44:33.553Z,17.08
2018-07-10T00:45:34.100Z,17.06
2018-07-10T00:46:34.656Z,17.11
2018-07-10T00:47:35.208Z,17.06
2018-07-10T00:48:35.765Z,17.09
2018-07-10T00:49:36.317Z,17.09
2018-07-10T00:50:36.870Z,17.08
2018-07-10T00:51:37.417Z,17.01
2018-07-10T00:52:37.972Z,17.00
2018-07-10T00:53:38.526Z,17.06
2018-07-10T00:54:39.071Z,17.01
2018-07-10T00:55:39.630Z,17.11
2018-07-10T00:56:40.192Z,17.16
2018-07-10T00:57:40.739Z,17.08
2018-07-10T00:58:41.293Z,17.04
2018-07-10T00:59:41.847Z,17.00
2018-07-10T01:00:42.395Z,16.91
2018-07-10T01:01:42.948Z,17.00
2018-07-10T01:02:43.502Z,17.04
2018-07-10T01:03:44.072Z,16.91
2018-07-10T01:04:44.610Z,16.83
2018-07-10T01:05:45.164Z,16.89
2018-07-10T01:06:45.715Z,17.04
2018-07-10T01:07:46.529Z,17.01
2018-07-10T01:08:47.074Z,16.91
2018-07-10T01:09:47.628Z,16.94
2018-07-10T01:10:48.173Z,16.83
2018-07-10T01:11:48.730Z,16.83
2018-07-10T01:12:49.283Z,16.81
2018-07-10T01:13:49.836Z,16.75
2018-07-10T01:14:50.390Z,16.75
2018-07-10T01:15:50.945Z,16.76
2018-07-10T01:16:51.491Z,16.75
2018-07-10T01:17:52.048Z,16.63
2018-07-10T01:18:52.645Z,16.75
2018-07-10T01:19:53.149Z,16.68
2018-07-10T01:20:53.702Z,16.61
2018-07-10T01:21:54.246Z,16.76
2018-07-10T01:22:54.796Z,16.76
2018-07-10T01:23:55.349Z,16.75
2018-07-10T01:24:55.905Z,16.71
2018-07-10T01:25:56.461Z,16.71
2018-07-10T01:26:57.020Z,16.76
2018-07-10T01:27:57.573Z,16.75
2018-07-10T01:28:58.127Z,16.76
2018-07-10T01:29:58.687Z,16.73
2018-07-10T01:30:59.226Z,16.86
2018-07-10T01:31:59.783Z,16.79
2018-07-10T01:33:00.333Z,16.82
2018-07-10T01:34:00.889Z,16.87
2018-07-10T01:35:01.456Z,16.93
2018-07-10T01:36:01.997Z,16.82
2018-07-10T01:37:02.547Z,16.83
2018-07-10T01:38:03.102Z,16.90
2018-07-10T01:39:03.654Z,16.86
2018-07-10T01:40:04.211Z,16.79
2018-07-10T01:41:04.764Z,16.79
2018-07-10T01:42:05.312Z,16.71
2018-07-10T01:43:05.867Z,16.60
2018-07-10T01:44:06.421Z,16.61
2018-07-10T01:45:06.973Z,16.68
2018-07-10T01:46:07.526Z,16.68
2018-07-10T01:47:08.082Z,16.69
2018-07-10T01:48:08.638Z,16.61
2018-07-10T01:49:09.192Z,16.61
2018-07-10T01:50:09.742Z,16.53
2018-07-10T01:51:10.296Z,16.56
2018-07-10T01:52:10.847Z,16.57
2018-07-10T01:53:11.404Z,16.61
2018-07-10T01:54:11.956Z,16.63
2018-07-10T01:55:12.520Z,16.60
2018-07-10T01:56:13.066Z,16.61
2018-07-10T01:57:13.626Z,16.66
2018-07-10T01:58:14.176Z,16.75
2018-07-10T01:59:14.729Z,16.63
2018-07-10T02:00:15.288Z,16.56
2018-07-10T02:01:15.845Z,16.53
2018-07-10T02:02:16.390Z,16.53
2018-07-10T02:03:16.944Z,16.38
2018-07-10T02:04:17.498Z,16.41
2018-07-10T02:05:18.046Z,16.31
2018-07-10T02:06:18.599Z,16.41
2018-07-10T02:07:19.153Z,16.36
2018-07-10T02:08:19.707Z,16.32
2018-07-10T02:09:20.256Z,16.42
2018-07-10T02:10:20.812Z,16.43
2018-07-10T02:11:21.360Z,16.39
2018-07-10T02:12:21.915Z,16.38
2018-07-10T02:13:22.468Z,16.41
2018-07-10T02:14:23.022Z,16.33
2018-07-10T02:15:23.580Z,16.29
2018-07-10T02:16:24.131Z,16.33
2018-07-10T02:17:24.690Z,16.31
2018-07-10T02:18:25.242Z,16.36
2018-07-10T02:19:25.795Z,16.32
2018-07-10T02:20:26.350Z,16.25
2018-07-10T02:21:26.897Z,16.36
2018-07-10T02:22:27.454Z,16.31
2018-07-10T02:23:28.012Z,16.29
2018-07-10T02:24:28.561Z,16.24
2018-07-10T02:25:29.110Z,16.21
2018-07-10T02:26:29.654Z,16.29
2018-07-10T02:27:30.210Z,16.32
2018-07-10T02:28:30.756Z,16.13
2018-07-10T02:29:31.312Z,16.21
2018-07-10T02:30:31.863Z,16.12
2018-07-10T02:31:32.417Z,16.20
2018-07-10T02:32:32.971Z,16.17
2018-07-10T02:33:33.526Z,16.25
2018-07-10T02:34:34.080Z,16.23
2018-07-10T02:35:34.632Z,16.23
2018-07-10T02:36:35.188Z,16.25
2018-07-10T02:37:35.744Z,16.24
2018-07-10T02:38:36.297Z,16.15
2018-07-10T02:39:36.848Z,16.17
2018-07-10T02:40:37.398Z,16.25
2018-07-10T02:41:37.956Z,16.15
2018-07-10T02:42:38.505Z,16.27
2018-07-10T02:43:39.097Z,16.24
2018-07-10T02:44:39.615Z,16.16
2018-07-10T02:45:40.170Z,16.17
2018-07-10T02:46:40.727Z,16.17
2018-07-10T02:47:41.270Z,16.17
2018-07-10T02:48:41.821Z,16.15
2018-07-10T02:49:42.375Z,16.17
2018-07-10T02:50:42.931Z,16.10
2018-07-10T02:51:43.482Z,16.15
2018-07-10T02:52:44.043Z,16.15
2018-07-10T02:53:44.595Z,16.13
2018-07-10T02:54:45.138Z,16.21
2018-07-10T02:55:45.684Z,16.20
2018-07-10T02:56:46.240Z,16.21
2018-07-10T02:57:46.799Z,16.10
2018-07-10T02:58:47.352Z,16.16
2018-07-10T02:59:47.903Z,16.10
2018-07-10T03:00:48.454Z,16.13
2018-07-10T03:01:49.002Z,16.10
2018-07-10T03:02:49.553Z,16.15
2018-07-10T03:03:50.109Z,16.12
2018-07-10T03:04:50.668Z,16.04
2018-07-10T03:05:51.218Z,16.05
2018-07-10T03:06:51.775Z,15.99
2018-07-10T03:07:52.323Z,16.04
2018-07-10T03:08:52.883Z,15.91
2018-07-10T03:09:53.435Z,15.84
2018-07-10T03:10:53.993Z,15.97
2018-07-10T03:11:54.560Z,15.97
2018-07-10T03:12:55.097Z,15.97
2018-07-10T03:13:55.652Z,16.05
2018-07-10T03:14:56.201Z,15.97
2018-07-10T03:15:56.755Z,16.04
2018-07-10T03:16:57.308Z,15.89
2018-07-10T03:17:57.868Z,15.91
2018-07-10T03:18:58.409Z,15.87
2018-07-10T03:19:58.968Z,15.82
2018-07-10T03:20:59.540Z,15.77
2018-07-10T03:22:00.080Z,15.91
2018-07-10T03:23:00.626Z,15.86
2018-07-10T03:24:01.183Z,15.75
2018-07-10T03:25:01.730Z,15.64
2018-07-10T03:26:02.285Z,15.65
2018-07-10T03:27:02.845Z,15.75
2018-07-10T03:28:03.396Z,15.67
2018-07-10T03:29:03.966Z,15.67
2018-07-10T03:30:04.510Z,15.76
2018-07-10T03:31:05.068Z,15.67
2018-07-10T03:32:05.626Z,15.65
2018-07-10T03:33:06.170Z,15.65
2018-07-10T03:34:06.723Z,15.67
2018-07-10T03:35:07.281Z,15.62
2018-07-10T03:36:07.838Z,15.73
2018-07-10T03:37:08.397Z,15.67
2018-07-10T03:38:08.948Z,15.65
2018-07-10T03:39:09.506Z,15.67
2018-07-10T03:40:10.065Z,15.65
2018-07-10T03:41:10.613Z,15.67
2018-07-10T03:42:11.171Z,15.71
2018-07-10T03:43:11.726Z,15.71
2018-07-10T03:44:12.277Z,15.64
2018-07-10T03:45:12.834Z,15.76
2018-07-10T03:46:13.389Z,15.79
2018-07-10T03:47:13.949Z,15.79
2018-07-10T03:48:14.500Z,15.75
2018-07-10T03:49:15.054Z,15.65
2018-07-10T03:50:15.604Z,15.62
2018-07-10T03:51:16.160Z,15.77
2018-07-10T03:52:16.719Z,15.82
2018-07-10T03:53:17.276Z,15.76
2018-07-10T03:54:17.835Z,15.82
2018-07-10T03:55:18.388Z,15.80
2018-07-10T03:56:18.946Z,15.80
2018-07-10T03:57:19.503Z,15.80
2018-07-10T03:58:20.050Z,15.87
2018-07-10T03:59:20.609Z,15.95
2018-07-10T04:00:21.165Z,15.83
2018-07-10T04:01:21.729Z,15.86
2018-07-10T04:02:22.280Z,15.92
2018-07-10T04:03:22.834Z,15.98
2018-07-10T04:04:23.383Z,15.97
2018-07-10T04:05:23.943Z,15.98
2018-07-10T04:06:24.500Z,15.86
2018-07-10T04:07:25.055Z,15.97
2018-07-10T04:08:25.606Z,15.99
2018-07-10T04:09:26.164Z,16.07
2018-07-10T04:10:26.722Z,16.01
2018-07-10T04:11:27.275Z,16.01
2018-07-10T04:12:27.835Z,15.97
2018-07-10T04:13:28.394Z,15.95
2018-07-10T04:14:28.950Z,15.98
2018-07-10T04:15:29.502Z,15.95
2018-07-10T04:16:30.064Z,15.97
2018-07-10T04:17:30.620Z,16.02
2018-07-10T04:18:31.177Z,15.97
2018-07-10T04:19:31.739Z,16.04
2018-07-10T04:20:32.298Z,16.04
2018-07-10T04:21:32.853Z,16.02
2018-07-10T04:22:33.411Z,15.92
2018-07-10T04:23:33.969Z,16.01
2018-07-10T04:24:34.526Z,16.05
2018-07-10T04:25:35.085Z,16.04
2018-07-10T04:26:35.636Z,16.04
2018-07-10T04:27:36.198Z,16.12
2018-07-10T04:28:36.756Z,16.10
2018-07-10T04:29:37.316Z,16.01
2018-07-10T04:30:37.880Z,16.01
2018-07-10T04:31:38.435Z,16.02
2018-07-10T04:32:38.993Z,16.02
2018-07-10T04:33:39.550Z,15.99
2018-07-10T04:34:40.112Z,15.95
2018-07-10T04:35:40.674Z,15.98
2018-07-10T04:36:41.232Z,15.99
2018-07-10T04:37:41.791Z,15.98
2018-07-10T04:38:42.349Z,16.10
2018-07-10T04:39:42.904Z,16.15
2018-07-10T04:40:43.456Z,16.12
2018-07-10T04:41:44.016Z,16.13
2018-07-10T04:42:44.569Z,16.12
2018-07-10T04:43:45.121Z,16.10
2018-07-10T04:44:45.678Z,16.05
2018-07-10T04:45:46.238Z,16.13
2018-07-10T04:46:46.791Z,16.13
2018-07-10T04:47:47.348Z,16.20
2018-07-10T04:48:47.906Z,16.10
2018-07-10T04:49:48.464Z,16.15
2018-07-10T04:50:49.022Z,16.23
2018-07-10T04:51:49.576Z,16.16
2018-07-10T04:52:50.131Z,16.17
2018-07-10T04:53:50.692Z,16.08
2018-07-10T04:54:51.250Z,15.99
2018-07-10T04:55:51.808Z,16.05
2018-07-10T04:56:52.381Z,16.10
2018-07-10T04:57:53.015Z,16.01
2018-07-10T04:58:53.560Z,15.98
2018-07-10T04:59:54.128Z,15.97
2018-07-10T05:00:54.707Z,16.01
2018-07-10T05:01:55.257Z,15.98
2018-07-10T05:02:55.819Z,16.05
2018-07-10T05:03:56.382Z,16.10
2018-07-10T05:04:56.935Z,16.15
2018-07-10T05:05:57.540Z,16.23
2018-07-10T05:06:58.049Z,16.20
2018-07-10T05:07:58.605Z,16.21
2018-07-10T05:08:59.162Z,16.20
2018-07-10T05:09:59.720Z,16.24
2018-07-10T05:11:00.284Z,16.13
2018-07-10T05:12:00.841Z,16.31
2018-07-10T05:13:01.397Z,16.29
2018-07-10T05:14:01.961Z,16.20
2018-07-10T05:15:02.516Z,16.23
2018-07-10T05:16:03.064Z,16.24
2018-07-10T05:17:03.637Z,16.29
2018-07-10T05:18:04.176Z,16.31
2018-07-10T05:19:04.736Z,16.29
2018-07-10T05:20:05.296Z,16.29
2018-07-10T05:21:05.854Z,16.35
2018-07-10T05:22:06.414Z,16.31
2018-07-10T05:23:07.015Z,16.24
2018-07-10T05:24:07.528Z,16.29
2018-07-10T05:25:08.084Z,16.24
2018-07-10T05:26:08.641Z,16.15
2018-07-10T05:27:09.199Z,16.27
2018-07-10T05:28:09.753Z,16.25
2018-07-10T05:29:10.323Z,16.13
2018-07-10T05:30:10.898Z,16.21
2018-07-10T05:31:11.571Z,16.23
2018-07-10T05:32:12.104Z,16.32
2018-07-10T05:33:12.670Z,16.31
2018-07-10T05:34:13.226Z,16.24
2018-07-10T05:35:13.786Z,16.41
2018-07-10T05:36:14.341Z,16.35
2018-07-10T05:37:14.954Z,16.25
2018-07-10T05:38:15.466Z,16.24
2018-07-10T05:39:16.025Z,16.23
2018-07-10T05:40:16.592Z,16.15
2018-07-10T05:41:17.245Z,16.15
2018-07-10T05:42:17.815Z,16.16
2018-07-10T05:43:18.347Z,16.15
2018-07-10T05:44:18.910Z,16.20
2018-07-10T05:45:19.472Z,16.15
2018-07-10T05:46:20.076Z,16.15
2018-07-10T05:47:20.586Z,16.21
2018-07-10T05:48:21.143Z,16.16
2018-07-10T05:49:21.706Z,16.31
2018-07-10T05:50:22.267Z,16.25
2018-07-10T05:51:22.827Z,16.27
2018-07-10T05:52:23.390Z,16.31
2018-07-10T05:53:23.955Z,16.23
2018-07-10T05:54:24.516Z,16.27
2018-07-10T05:55:25.079Z,16.42
2018-07-10T05:56:25.646Z,16.32
2018-07-10T05:57:26.205Z,16.24
2018-07-10T05:58:26.777Z,16.31
2018-07-10T05:59:27.326Z,16.42
2018-07-10T06:00:27.884Z,16.50
2018-07-10T06:01:28.454Z,16.49
2018-07-10T06:02:29.010Z,16.54
2018-07-10T06:03:29.571Z,16.57
2018-07-10T06:04:30.162Z,16.63
2018-07-10T06:05:30.700Z,16.66
2018-07-10T06:06:31.262Z,16.63
2018-07-10T06:07:31.826Z,16.63
2018-07-10T06:08:32.384Z,16.73
2018-07-10T06:09:32.940Z,16.72
2018-07-10T06:10:33.603Z,16.75
2018-07-10T06:11:34.098Z,16.89
2018-07-10T06:12:34.645Z,16.81
2018-07-10T06:13:35.201Z,16.75
2018-07-10T06:14:35.757Z,16.89
2018-07-10T06:15:36.318Z,17.01
2018-07-10T06:16:36.883Z,17.04
2018-07-10T06:17:37.445Z,17.00
2018-07-10T06:18:38.009Z,17.05
2018-07-10T06:19:38.564Z,16.96
2018-07-10T06:20:39.132Z,16.86
2018-07-10T06:21:39.691Z,16.96
2018-07-10T06:22:40.255Z,16.83
2018-07-10T06:23:40.812Z,16.97
2018-07-10T06:24:41.375Z,16.94
2018-07-10T06:25:41.945Z,16.94
2018-07-10T06:26:42.512Z,17.04
2018-07-10T06:27:43.074Z,16.94
2018-07-10T06:28:43.639Z,17.01
2018-07-10T06:29:44.203Z,17.00
2018-07-10T06:30:44.768Z,17.05
2018-07-10T06:31:45.332Z,17.21
2018-07-10T06:32:45.896Z,17.45
2018-07-10T06:33:46.461Z,17.68
2018-07-10T06:34:47.025Z,18.10
2018-07-10T06:35:47.594Z,18.47
2018-07-10T06:36:48.173Z,18.73
2018-07-10T06:37:48.771Z,19.14
2018-07-10T06:38:49.331Z,19.61
2018-07-10T06:39:49.909Z,19.88
2018-07-10T06:40:50.476Z,20.32
2018-07-10T06:41:51.042Z,19.98
2018-07-10T06:42:51.619Z,20.25
2018-07-10T06:43:52.195Z,20.50
2018-07-10T06:44:52.765Z,20.14
2018-07-10T06:45:53.335Z,20.11
2018-07-10T06:46:53.906Z,19.87
2018-07-10T06:47:54.474Z,19.66
2018-07-10T06:48:55.040Z,19.30
2018-07-10T06:49:55.600Z,18.99
2018-07-10T06:50:56.169Z,19.07
2018-07-10T06:51:56.730Z,19.30
2018-07-10T06:52:57.432Z,19.11
2018-07-10T06:53:57.867Z,19.34
2018-07-10T06:54:58.437Z,19.40
2018-07-10T06:55:59.005Z,19.66
2018-07-10T06:56:59.580Z,20.13
2018-07-10T06:58:00.144Z,20.10
2018-07-10T06:59:00.716Z,20.03
2018-07-10T07:00:01.287Z,20.03
2018-07-10T07:01:01.874Z,20.06
2018-07-10T07:02:02.456Z,20.29
2018-07-10T07:03:03.025Z,20.54
2018-07-10T07:04:03.591Z,20.57
2018-07-10T07:05:04.161Z,20.66
2018-07-10T07:06:04.733Z,21.10
2018-07-10T07:07:05.304Z,21.43
2018-07-10T07:08:05.879Z,21.60
2018-07-10T07:09:06.459Z,21.55
2018-07-10T07:10:07.025Z,21.64
2018-07-10T07:11:07.590Z,21.51
2018-07-10T07:12:08.165Z,21.93
2018-07-10T07:13:08.743Z,22.28
2018-07-10T07:14:09.317Z,22.73
2018-07-10T07:15:09.890Z,22.53
2018-07-10T07:16:10.466Z,22.10
2018-07-10T07:17:11.040Z,21.40
2018-07-10T07:18:11.610Z,20.67
2018-07-10T07:19:12.181Z,20.66
2018-07-10T07:20:12.758Z,21.07
2018-07-10T07:21:13.333Z,21.43
2018-07-10T07:22:13.908Z,21.79
2018-07-10T07:23:14.484Z,21.77
2018-07-10T07:24:15.058Z,21.67
2018-07-10T07:25:15.627Z,21.12
2018-07-10T07:26:16.190Z,20.57
2018-07-10T07:27:16.753Z,20.36
2018-07-10T07:28:17.327Z,20.10
2018-07-10T07:29:17.897Z,20.14
2018-07-10T07:30:18.492Z,20.26
2018-07-10T07:31:19.062Z,20.50
2018-07-10T07:32:19.682Z,21.24
2018-07-10T07:33:20.267Z,21.86
2018-07-10T07:34:20.909Z,21.98
2018-07-10T07:35:21.448Z,21.86
2018-07-10T07:36:22.068Z,21.39
2018-07-10T07:37:22.701Z,21.40
2018-07-10T07:38:23.281Z,21.22
2018-07-10T07:39:23.857Z,20.82
2018-07-10T07:40:24.476Z,20.40
2018-07-10T07:41:25.082Z,20.40
2018-07-10T07:42:25.596Z,20.24
2018-07-10T07:43:26.165Z,20.02
2018-07-10T07:44:26.839Z,20.24
2018-07-10T07:45:27.303Z,20.24
2018-07-10T07:46:27.872Z,20.69
2018-07-10T07:47:28.440Z,21.27
2018-07-10T07:48:29.007Z,21.51
2018-07-10T07:49:29.579Z,21.91
2018-07-10T07:50:30.157Z,21.91
2018-07-10T07:51:30.741Z,21.98
2018-07-10T07:52:31.321Z,21.65
2018-07-10T07:53:31.879Z,21.17
2018-07-10T07:54:32.481Z,20.92
2018-07-10T07:55:33.023Z,20.57
2018-07-10T07:56:33.592Z,20.26
2018-07-10T07:57:34.153Z,20.03
2018-07-10T07:58:34.724Z,19.96
2018-07-10T07:59:35.289Z,20.52
2018-07-10T08:00:35.898Z,21.14
2018-07-10T08:01:36.427Z,21.54
2018-07-10T08:02:37.035Z,21.79
2018-07-10T08:03:37.607Z,21.77
2018-07-10T08:04:38.185Z,22.03
2018-07-10T08:05:38.757Z,22.66
2018-07-10T08:06:39.343Z,22.99
2018-07-10T08:07:39.920Z,23.08
2018-07-10T08:08:40.511Z,23.41
2018-07-10T08:09:41.082Z,23.15
2018-07-10T08:10:41.652Z,22.91
2018-07-10T08:11:42.224Z,22.69
2018-07-10T08:12:42.797Z,22.54
2018-07-10T08:13:43.369Z,22.73
2018-07-10T08:14:43.945Z,22.69
2018-07-10T08:15:44.515Z,22.62
2018-07-10T08:16:45.114Z,22.11
2018-07-10T08:17:45.686Z,21.92
2018-07-10T08:18:46.285Z,22.02
2018-07-10T08:19:46.853Z,21.92
2018-07-10T08:20:47.402Z,22.03
2018-07-10T08:21:47.976Z,22.13
2018-07-10T08:22:48.563Z,21.79
2018-07-10T08:23:49.133Z,21.65
2018-07-10T08:24:49.711Z,21.65
2018-07-10T08:25:50.281Z,21.37
2018-07-10T08:26:50.844Z,21.09
2018-07-10T08:27:51.441Z,20.81
2018-07-10T08:28:52.004Z,20.80
2018-07-10T08:29:52.572Z,20.81
2018-07-10T08:30:53.144Z,20.60
2018-07-10T08:31:53.713Z,20.51
2018-07-10T08:32:54.479Z,20.70
2018-07-10T08:33:55.060Z,20.65
2018-07-10T08:34:55.603Z,20.57
2018-07-10T08:35:56.175Z,20.72
2018-07-10T08:36:56.745Z,20.57
2018-07-10T08:37:57.322Z,20.35
2018-07-10T08:38:57.892Z,20.59
2018-07-10T08:39:58.463Z,20.50
2018-07-10T08:40:59.034Z,20.52
2018-07-10T08:41:59.607Z,20.70
2018-07-10T08:43:00.279Z,20.80
2018-07-10T08:44:01.007Z,20.80
2018-07-10T08:45:01.905Z,20.78
2018-07-10T08:46:02.457Z,20.81
2018-07-10T08:47:03.028Z,21.40
2018-07-10T08:48:03.615Z,21.37
2018-07-10T08:49:04.210Z,21.42
2018-07-10T08:50:04.788Z,21.52
2018-07-10T08:51:05.359Z,21.54
2018-07-10T08:52:05.930Z,21.65
2018-07-10T08:53:06.747Z,21.70
2018-07-10T08:54:07.324Z,21.73
2018-07-10T08:55:07.890Z,21.80
2018-07-10T08:56:08.482Z,21.70
2018-07-10T08:57:09.028Z,21.49
2018-07-10T08:58:09.590Z,21.45
2018-07-10T08:59:10.175Z,21.51
2018-07-10T09:00:10.771Z,21.62
2018-07-10T09:01:11.337Z,22.18
2018-07-10T09:02:11.899Z,22.97
2018-07-10T09:03:12.471Z,23.50
2018-07-10T09:04:13.083Z,23.84
2018-07-10T09:05:13.665Z,23.66
2018-07-10T09:06:14.339Z,22.83
2018-07-10T09:07:14.974Z,22.44
2018-07-10T09:08:15.541Z,22.44
2018-07-10T09:09:16.119Z,22.69
2018-07-10T09:10:16.693Z,23.12
2018-07-10T09:11:17.267Z,23.74
2018-07-10T09:12:17.849Z,23.96
2018-07-10T09:13:18.430Z,24.28
2018-07-10T09:14:19.040Z,24.42
2018-07-10T09:15:19.604Z,24.45
2018-07-10T09:16:20.224Z,24.20
2018-07-10T09:17:20.793Z,24.23
2018-07-10T09:18:21.376Z,24.21
2018-07-10T09:19:21.963Z,24.20
2018-07-10T09:20:22.571Z,23.94
2018-07-10T09:21:23.148Z,23.72
2018-07-10T09:22:23.728Z,23.39
2018-07-10T09:23:24.309Z,23.24
2018-07-10T09:24:24.883Z,23.35
2018-07-10T09:25:25.460Z,23.06
2018-07-10T09:26:26.038Z,22.76
2018-07-10T09:27:26.624Z,22.63
2018-07-10T09:28:27.185Z,22.63
2018-07-10T09:29:27.767Z,22.63
2018-07-10T09:30:28.340Z,22.50
2018-07-10T09:31:28.929Z,22.40
2018-07-10T09:32:29.507Z,22.20
2018-07-10T09:33:30.153Z,22.07
2018-07-10T09:34:30.665Z,22.08
2018-07-10T09:35:31.246Z,22.07
2018-07-10T09:36:31.812Z,22.01
2018-07-10T09:37:32.384Z,21.91
2018-07-10T09:38:32.963Z,21.83
2018-07-10T09:39:33.579Z,22.03
2018-07-10T09:40:34.157Z,21.99
2018-07-10T09:41:34.738Z,21.75
2018-07-10T09:42:35.301Z,21.54
2018-07-10T09:43:35.928Z,21.49
2018-07-10T09:44:36.500Z,21.64
2018-07-10T09:45:37.093Z,21.39
2018-07-10T09:46:37.655Z,21.43
2018-07-10T09:47:38.235Z,21.33
2018-07-10T09:48:38.803Z,20.95
2018-07-10T09:49:39.369Z,20.77
2018-07-10T09:50:39.942Z,20.72
2018-07-10T09:51:40.529Z,20.43
2018-07-10T09:52:41.081Z,20.47
2018-07-10T09:53:41.654Z,20.40
2018-07-10T09:54:42.328Z,20.36
2018-07-10T09:55:43.083Z,20.31
2018-07-10T09:56:43.651Z,20.25
2018-07-10T09:57:44.232Z,20.28
2018-07-10T09:58:44.808Z,20.21
2018-07-10T09:59:45.366Z,20.26
2018-07-10T10:00:45.933Z,20.26
2018-07-10T10:01:46.548Z,20.11
2018-07-10T10:02:47.063Z,20.16
2018-07-10T10:03:47.633Z,20.26
2018-07-10T10:04:48.203Z,20.25
2018-07-10T10:05:48.794Z,20.34
2018-07-10T10:06:49.323Z,20.32
2018-07-10T10:07:49.891Z,20.31
2018-07-10T10:08:50.468Z,20.44
2018-07-10T10:09:51.044Z,20.48
2018-07-10T10:10:51.635Z,20.42
2018-07-10T10:11:52.189Z,20.36
2018-07-10T10:12:52.747Z,20.17
2018-07-10T10:13:53.333Z,20.26
2018-07-10T10:14:53.899Z,20.28
2018-07-10T10:15:54.457Z,20.40
2018-07-10T10:16:55.030Z,20.40
2018-07-10T10:17:55.592Z,20.54
2018-07-10T10:18:56.165Z,20.50
2018-07-10T10:19:56.739Z,20.69
2018-07-10T10:20:57.310Z,20.82
2018-07-10T10:21:57.882Z,20.82
2018-07-10T10:22:58.444Z,20.60
2018-07-10T10:23:59.040Z,20.43
2018-07-10T10:24:59.604Z,20.32
2018-07-10T10:26:00.185Z,20.32
2018-07-10T10:27:00.752Z,20.32
2018-07-10T10:28:01.332Z,20.26
2018-07-10T10:29:01.943Z,20.22
2018-07-10T10:30:02.521Z,20.11
2018-07-10T10:31:03.077Z,19.99
2018-07-10T10:32:03.648Z,19.98
2018-07-10T10:33:04.295Z,19.98
2018-07-10T10:34:04.919Z,20.10
2018-07-10T10:35:05.500Z,20.06
2018-07-10T10:36:06.061Z,19.95
2018-07-10T10:37:06.642Z,20.02
2018-07-10T10:38:07.223Z,20.04
2018-07-10T10:39:07.786Z,20.03
2018-07-10T10:40:08.351Z,20.13
2018-07-10T10:41:08.928Z,20.04
2018-07-10T10:42:09.497Z,20.06
2018-07-10T10:43:10.065Z,20.13
2018-07-10T10:44:10.623Z,20.25
2018-07-10T10:45:11.201Z,20.29
2018-07-10T10:46:11.801Z,20.35
2018-07-10T10:47:12.360Z,20.34
2018-07-10T10:48:12.919Z,20.42
2018-07-10T10:49:13.491Z,20.51
2018-07-10T10:50:14.057Z,20.29
2018-07-10T10:51:14.621Z,20.34
2018-07-10T10:52:15.175Z,20.44
2018-07-10T10:53:15.760Z,20.17
2018-07-10T10:54:16.328Z,20.17
2018-07-10T10:55:16.896Z,20.24
2018-07-10T10:56:17.466Z,20.29
2018-07-10T10:57:18.042Z,20.16
2018-07-10T10:58:18.617Z,19.98
2018-07-10T10:59:19.182Z,19.92
2018-07-10T11:00:19.754Z,19.74
2018-07-10T11:01:20.321Z,19.84
2018-07-10T11:02:20.919Z,19.71
2018-07-10T11:03:21.463Z,19.70
2018-07-10T11:04:22.030Z,19.74
2018-07-10T11:05:22.621Z,19.67
2018-07-10T11:06:23.186Z,19.87
2018-07-10T11:07:23.748Z,19.91
2018-07-10T11:08:24.310Z,19.87
2018-07-10T11:09:24.866Z,19.88
2018-07-10T11:10:25.426Z,19.94
2018-07-10T11:11:25.997Z,19.84
2018-07-10T11:12:26.584Z,19.77
2018-07-10T11:13:27.153Z,19.70
2018-07-10T11:14:27.727Z,19.70
2018-07-10T11:15:28.371Z,19.74
2018-07-10T11:16:28.861Z,19.55
2018-07-10T11:17:29.414Z,19.55
2018-07-10T11:18:29.982Z,19.47
2018-07-10T11:19:30.553Z,19.43
2018-07-10T11:20:31.108Z,19.41
2018-07-10T11:21:31.671Z,19.39
2018-07-10T11:22:32.250Z,19.36
2018-07-10T11:23:32.796Z,19.48
2018-07-10T11:24:33.371Z,19.49
2018-07-10T11:25:33.937Z,19.41
2018-07-10T11:26:34.510Z,19.49
2018-07-10T11:27:35.107Z,19.73
2018-07-10T11:28:35.658Z,19.87
2018-07-10T11:29:36.220Z,20.03
2018-07-10T11:30:36.812Z,20.17
2018-07-10T11:31:37.454Z,20.31
2018-07-10T11:32:38.028Z,20.54
2018-07-10T11:33:38.588Z,20.63
2018-07-10T11:34:39.159Z,20.73
2018-07-10T11:35:39.710Z,20.75
2018-07-10T11:36:40.289Z,20.84
2018-07-10T11:37:40.913Z,20.82
2018-07-10T11:38:41.550Z,20.87
2018-07-10T11:39:42.147Z,20.73
2018-07-10T11:40:42.716Z,20.80
2018-07-10T11:41:43.298Z,20.78
2018-07-10T11:42:43.873Z,20.73
2018-07-10T11:43:44.495Z,20.51
2018-07-10T11:44:45.159Z,20.25
2018-07-10T11:45:45.705Z,20.11
2018-07-10T11:46:46.251Z,20.03
2018-07-10T11:47:46.850Z,20.06
2018-07-10T11:48:47.401Z,20.04
2018-07-10T11:49:47.969Z,19.94
2018-07-10T11:50:48.530Z,19.91
2018-07-10T11:51:49.166Z,19.77
2018-07-10T11:52:49.665Z,19.74
2018-07-10T11:53:50.333Z,19.70
2018-07-10T11:54:50.857Z,19.59
2018-07-10T11:55:51.450Z,19.58
2018-07-10T11:56:52.055Z,19.66
2018-07-10T11:57:52.685Z,19.47
2018-07-10T11:58:53.294Z,19.37
2018-07-10T11:59:53.940Z,19.47
2018-07-10T12:00:54.583Z,19.49
2018-07-10T12:01:55.152Z,19.49
2018-07-10T12:02:55.721Z,19.43
2018-07-10T12:03:56.298Z,19.41
2018-07-10T12:04:56.928Z,19.44
2018-07-10T12:05:57.453Z,19.55
2018-07-10T12:06:58.011Z,19.47
2018-07-10T12:07:58.571Z,19.59
2018-07-10T12:08:59.157Z,19.81
2018-07-10T12:09:59.701Z,19.79
2018-07-10T12:11:00.265Z,19.84
2018-07-10T12:12:00.829Z,19.80
2018-07-10T12:13:01.388Z,19.80
2018-07-10T12:14:01.962Z,19.94
2018-07-10T12:15:02.535Z,19.88
2018-07-10T12:16:03.106Z,19.74
2018-07-10T12:17:03.709Z,19.71
2018-07-10T12:18:04.266Z,19.66
2018-07-10T12:19:04.856Z,19.71
2018-07-10T12:20:05.424Z,19.81
2018-07-10T12:21:06.055Z,19.81
2018-07-10T12:22:06.827Z,19.80
2018-07-10T12:23:07.394Z,19.70
2018-07-10T12:24:07.973Z,19.70
2018-07-10T12:25:08.622Z,19.66
2018-07-10T12:26:09.196Z,19.56
2018-07-10T12:27:09.766Z,19.36
2018-07-10T12:28:10.340Z,19.29
2018-07-10T12:29:10.908Z,19.30
2018-07-10T12:30:11.736Z,19.39
2018-07-10T12:31:12.329Z,19.36
2018-07-10T12:32:12.930Z,19.24
2018-07-10T12:33:13.456Z,19.34
2018-07-10T12:34:14.046Z,19.30
2018-07-10T12:35:14.604Z,19.34
2018-07-10T12:36:15.184Z,19.34
2018-07-10T12:37:15.792Z,19.27
2018-07-10T12:38:16.367Z,19.27
2018-07-10T12:39:16.952Z,19.15
2018-07-10T12:40:17.548Z,19.11
2018-07-10T12:41:18.230Z,18.99
2018-07-10T12:42:18.787Z,19.15
2018-07-10T12:43:19.358Z,19.00
2018-07-10T12:44:19.950Z,18.98
2018-07-10T12:45:20.530Z,18.92
2018-07-10T12:46:21.090Z,18.95
2018-07-10T12:47:21.672Z,18.98
2018-07-10T12:48:22.231Z,18.83
2018-07-10T12:49:22.855Z,18.74
2018-07-10T12:50:23.356Z,18.85
2018-07-10T12:51:23.931Z,18.62
2018-07-10T12:52:24.495Z,18.56
2018-07-10T12:53:25.091Z,18.58
2018-07-10T12:54:25.636Z,18.51
2018-07-10T12:55:26.202Z,18.47
2018-07-10T12:56:26.775Z,18.26
2018-07-10T12:57:27.341Z,18.27
2018-07-10T12:58:27.947Z,18.18
2018-07-10T12:59:28.468Z,18.26